Time;durP1;ratioP1;P1;durP2;ratioP2;P2;SDS_P1;SDS_P2;PMS_P1;PMS_P2;Temp;Humidity;BMP_temperature;BMP_pressure;BME280_temperature;BME280_humidity;BME280_pressure;Samples;Min_cycle;Max_cycle;Signal;HPM_P1;HPM_P2
2022/01/22 00:01:04;;;;;;;;;;;;;;;;;;5010277;28;1585;-83
2022/01/22 00:03:29;;;;;;;;;;;;;;;;;;5011293;28;1576;-82
2022/01/22 00:05:55;;;;;;;;;;;;;;;;;;5010498;28;1493;-82
2022/01/22 00:08:20;;;;;;;;;;;;;;;;;;5010089;28;1546;-83
2022/01/22 00:10:45;;;;;;;;;;;;;;;;;;5009802;28;1581;-82
2022/01/22 00:15:42;;;;;;;;;;;;;;;;;;5011157;28;1401;-83
2022/01/22 00:18:07;;;;;;;;;;;;;;;;;;5015196;28;1600;-83
2022/01/22 00:20:33;;;;;;;;;;;;;;;;;;5015065;28;1400;-83
2022/01/22 00:22:58;;;;;;;;;;;;;;;;;;5014439;28;1596;-83
2022/01/22 00:25:23;;;;;;;;;;;;;;;;;;5016436;28;1742;-83
2022/01/22 00:27:49;;;;;;;;;;;;;;;;;;5015080;28;1906;-83
2022/01/22 00:30:18;;;;;;;;;;;;;;;;;;5013917;28;1372;-83
2022/01/22 00:32:44;;;;;;;;;;;;;;;;;;5008646;28;1906;-83
2022/01/22 00:35:09;;;;;;;;;;;;;;;;;;5012640;28;1526;-83
2022/01/22 00:37:35;;;;;;;;;;;;;;;;;;5012468;28;1652;-83
2022/01/22 00:40:03;;;;;;;;;;;;;;;;;;4998323;28;1699;-83
2022/01/22 00:42:28;;;;;;;;;;;;;;;;;;5011694;28;1744;-83
2022/01/22 00:44:53;;;;;;;;;;;;;;;;;;5008856;28;1394;-83
2022/01/22 00:47:19;;;;;;;;;;;;;;;;;;5013226;28;1718;-83
2022/01/22 00:49:44;;;;;;;;;;;;;;;;;;5014621;28;1640;-83
2022/01/22 00:52:09;;;;;;;;;;;;;;;;;;5008323;28;1979;-83
2022/01/22 00:54:35;;;;;;;;;;;;;;;;;;5011393;28;1656;-82
2022/01/22 00:57:00;;;;;;;;;;;;;;;;;;5008641;28;1691;-82
2022/01/22 00:59:25;;;;;;;;;;;;;;;;;;5002502;28;1551;-82
2022/01/22 01:01:50;;;;;;;;;;;;;;;;;;5011726;28;1568;-82
2022/01/22 01:04:15;;;;;;;;;;;;;;;;;;5013939;28;1767;-82
2022/01/22 01:06:41;;;;;;;;;;;;;;;;;;5012225;28;1659;-82
2022/01/22 01:09:08;;;;;;;;;;;;;;;;;;5014104;28;1715;-82
2022/01/22 01:11:37;;;;;;;;;;;;;;;;;;5013279;28;1942;-82
2022/01/22 01:14:05;;;;;;;;;;;;;;;;;;4998524;28;1589;-81
2022/01/22 01:35:30;;;;;;;;;;;;;;;;;;5011581;28;1643;-82
2022/01/22 01:37:58;;;;;;;;;;;;;;;;;;5012843;28;1839;-82
2022/01/22 01:40:25;;;;;;;;;;;;;;;;;;5012968;28;1974;-82
2022/01/22 01:43:06;;;;;;;;;;;;;;;;;;5010732;28;1234;-82
2022/01/22 01:45:32;;;;;;;;;;;;;;;;;;5012702;28;1588;-82
2022/01/22 01:47:59;;;;;;;;;;;;;;;;;;5013518;28;1390;-82
2022/01/22 01:50:25;;;;;;;;;;;;;;;;;;5008251;28;1692;-82
2022/01/22 01:53:05;;;;;;;;;;;;;;;;;;5012823;28;1909;-83
2022/01/22 01:55:51;;;;;;;;;;;;;;;;;;5013500;28;1680;-83
2022/01/22 01:58:16;;;;;;;;;;;;;;;;;;5013835;28;1242;-82
2022/01/22 02:00:42;;;;;;;;;;;;;;;;;;5012696;28;1592;-82
2022/01/22 02:03:09;;;;;;;;;;;;;;;;;;5013788;28;1841;-83
2022/01/22 02:05:35;;;;;;;;;;;;;;;;;;5011009;28;1666;-82
2022/01/22 02:08:00;;;;;;;;;;;;;;;;;;5014796;28;1763;-82
2022/01/22 02:10:29;;;;;;;;;;;;;;;;;;5012687;28;1572;-83
2022/01/22 02:25:57;;;;;;;;;;;;;;;;;;5013914;28;1683;-84
2022/01/22 02:28:23;;;;;;;;;;;;;;;;;;5012231;28;1631;-84
2022/01/22 02:30:52;;;;;;;;;;;;;;;;;;5010448;28;1631;-84
2022/01/22 02:35:53;;;;;;;;;;;;;;;;;;4996193;28;2024;-84
2022/01/22 02:38:27;;;;;;;;;;;;;;;;;;5013857;28;1584;-84
2022/01/22 02:40:52;;;;;;;;;;;;;;;;;;5012568;28;1671;-84
2022/01/22 02:43:19;;;;;;;;;;;;;;;;;;5009929;28;1656;-82
2022/01/22 02:45:46;;;;;;;;;;;;;;;;;;5006457;28;1652;-82
2022/01/22 02:48:11;;;;;;;;;;;;;;;;;;5011951;28;1722;-82
2022/01/22 02:50:37;;;;;;;;;;;;;;;;;;5017609;28;1629;-82
2022/01/22 02:53:03;;;;;;;;;;;;;;;;;;5012081;28;1976;-82
2022/01/22 02:55:28;;;;;;;;;;;;;;;;;;5005614;28;1647;-82
2022/01/22 02:57:53;;;;;;;;;;;;;;;;;;5008405;28;1718;-82
2022/01/22 03:00:22;;;;;;;;;;;;;;;;;;5011051;28;1589;-82
2022/01/22 03:02:48;;;;;;;;;;;;;;;;;;5011079;28;1613;-82
2022/01/22 03:05:13;;;;;;;;;;;;;;;;;;5013147;28;1691;-82
2022/01/22 03:07:40;;;;;;;;;;;;;;;;;;5010757;28;1585;-82
2022/01/22 03:10:09;;;;;;;;;;;;;;;;;;5002652;28;1275;-82
2022/01/22 03:15:30;;;;;;;;;;;;;;;;;;5013720;28;1267;-82
2022/01/22 03:27:48;;;;;;;;;;;;;;;;;;5004156;28;1454;-82
2022/01/22 03:30:13;;;;;;;;;;;;;;;;;;5010093;28;1578;-82
2022/01/22 03:32:51;;;;;;;;;;;;;;;;;;5003804;28;1910;-82
2022/01/22 03:37:45;;;;;;;;;;;;;;;;;;5012217;28;1402;-82
2022/01/22 03:40:12;;;;;;;;;;;;;;;;;;5010909;28;1589;-82
2022/01/22 03:42:38;;;;;;;;;;;;;;;;;;5014330;28;1540;-82
2022/01/22 03:45:03;;;;;;;;;;;;;;;;;;5011214;28;1611;-82
2022/01/22 03:47:28;;;;;;;;;;;;;;;;;;5010714;28;1931;-82
2022/01/22 03:49:53;;;;;;;;;;;;;;;;;;5013650;28;811;-82
2022/01/22 03:52:19;;;;;;;;;;;;;;;;;;5007280;28;1914;-82
2022/01/22 03:54:44;;;;;;;;;;;;;;;;;;5012885;28;1604;-82
2022/01/22 03:57:09;;;;;;;;;;;;;;;;;;5011126;28;1695;-82
2022/01/22 03:59:35;;;;;;;;;;;;;;;;;;5012656;28;1671;-82
2022/01/22 04:04:48;;;;;;;;;;;;;;;;;;5009590;28;1378;-83
2022/01/22 04:10:00;;;;;;;;;;;;;;;;;;5012480;28;1671;-82
2022/01/22 04:12:47;;;;;;;;;;;;;;;;;;5011122;28;1974;-82
2022/01/22 04:15:14;;;;;;;;;;;;;;;;;;5010147;28;1568;-83
2022/01/22 04:26:21;;;;;;;;;;;;;;;;;;5011221;28;1631;-83
2022/01/22 04:28:38;;;;;;;;;;;;;;;;;;5007278;28;1862;-83
2022/01/22 04:31:04;;;;;;;;;;;;;;;;;;5006123;28;1619;-83
2022/01/22 04:33:29;;;;;;;;;;;;;;;;;;5010712;28;1909;-83
2022/01/22 04:35:54;;;;;;;;;;;;;;;;;;5003812;28;1545;-83
2022/01/22 04:38:19;;;;;;;;;;;;;;;;;;5000941;28;1681;-83
2022/01/22 04:40:44;;;;;;;;;;;;;;;;;;5010760;28;1710;-83
2022/01/22 04:43:10;;;;;;;;;;;;;;;;;;5008670;28;1663;-83
2022/01/22 04:55:53;;;;;;;;;;;;;;;;;;5011281;28;1699;-83
2022/01/22 04:58:18;;;;;;;;;;;;;;;;;;5010497;28;1660;-83
2022/01/22 05:00:45;;;;;;;;;;;;;;;;;;5012849;28;1490;-82
2022/01/22 05:03:10;;;;;;;;;;;;;;;;;;5012933;28;1572;-82
2022/01/22 05:05:35;;;;;;;;;;;;;;;;;;5012525;28;1732;-83
2022/01/22 05:08:00;;;;;;;;;;;;;;;;;;5013363;28;1875;-83
2022/01/22 05:10:26;;;;;;;;;;;;;;;;;;5014587;28;1657;-82
2022/01/22 05:12:53;;;;;;;;;;;;;;;;;;5011752;28;1906;-83
2022/01/22 05:15:18;;;;;;;;;;;;;;;;;;5012461;28;1611;-82
2022/01/22 05:17:44;;;;;;;;;;;;;;;;;;5002510;28;1564;-83
2022/01/22 05:20:15;;;;;;;;;;;;;;;;;;5009456;28;1653;-83
2022/01/22 05:25:11;;;;;;;;;;;;;;;;;;5012650;28;1640;-82
2022/01/22 05:37:48;;;;;;;;;;;;;;;;;;5012918;28;1577;-82
2022/01/22 05:40:14;;;;;;;;;;;;;;;;;;5000769;28;1648;-83
2022/01/22 05:42:39;;;;;;;;;;;;;;;;;;5006474;28;1398;-83
2022/01/22 05:45:05;;;;;;;;;;;;;;;;;;5010054;28;1703;-82
2022/01/22 05:47:30;;;;;;;;;;;;;;;;;;5015051;28;1741;-82
2022/01/22 05:49:55;;;;;;;;;;;;;;;;;;5003105;28;1470;-82
2022/01/22 05:52:32;;;;;;;;;;;;;;;;;;5012113;28;1973;-82
2022/01/22 06:00:26;;;;;;;;;;;;;;;;;;4996717;28;1548;-83
2022/01/22 06:02:51;;;;;;;;;;;;;;;;;;5013674;28;1595;-83
2022/01/22 06:05:18;;;;;;;;;;;;;;;;;;5014289;28;1589;-82
2022/01/22 06:07:43;;;;;;;;;;;;;;;;;;5013130;28;1587;-82
2022/01/22 06:10:18;;;;;;;;;;;;;;;;;;5013036;28;1636;-82
2022/01/22 06:13:09;;;;;;;;;;;;;;;;;;5005116;28;1906;-82
2022/01/22 06:15:32;;;;;;;;;;;;;;;;;;5004418;28;1609;-83
2022/01/22 06:17:57;;;;;;;;;;;;;;;;;;5007317;28;1572;-83
2022/01/22 06:20:22;;;;;;;;;;;;;;;;;;5009234;28;1623;-83
2022/01/22 06:22:47;;;;;;;;;;;;;;;;;;5004257;28;1509;-83
2022/01/22 06:25:13;;;;;;;;;;;;;;;;;;5003582;28;1592;-82
2022/01/22 06:27:38;;;;;;;;;;;;;;;;;;5008530;28;1708;-83
2022/01/22 06:30:03;;;;;;;;;;;;;;;;;;5006064;28;1700;-83
2022/01/22 06:32:29;;;;;;;;;;;;;;;;;;5002662;28;1907;-83
2022/01/22 06:34:54;;;;;;;;;;;;;;;;;;5002948;28;1530;-83
2022/01/22 06:37:19;;;;;;;;;;;;;;;;;;5004592;28;1389;-83
2022/01/22 06:42:30;;;;;;;;;;;;;;;;;;5004007;28;1222;-83
2022/01/22 06:44:55;;;;;;;;;;;;;;;;;;5002872;28;1584;-83
2022/01/22 06:47:21;;;;;;;;;;;;;;;;;;5006216;28;1580;-83
2022/01/22 06:49:46;;;;;;;;;;;;;;;;;;5006757;28;1651;-83
2022/01/22 06:52:11;;;;;;;;;;;;;;;;;;5003408;28;1914;-83
2022/01/22 06:54:36;;;;;;;;;;;;;;;;;;5005911;28;1609;-83
2022/01/22 06:57:01;;;;;;;;;;;;;;;;;;5004589;28;1572;-83
2022/01/22 06:59:27;;;;;;;;;;;;;;;;;;5002625;28;1447;-83
2022/01/22 07:01:54;;;;;;;;;;;;;;;;;;5003754;28;1620;-83
2022/01/22 07:04:20;;;;;;;;;;;;;;;;;;5001213;28;1576;-83
2022/01/22 07:06:45;;;;;;;;;;;;;;;;;;5005363;28;1651;-82
2022/01/22 07:09:10;;;;;;;;;;;;;;;;;;5003585;28;1398;-82
2022/01/22 07:11:35;;;;;;;;;;;;;;;;;;5005992;28;1902;-83
2022/01/22 07:14:01;;;;;;;;;;;;;;;;;;5004865;28;1307;-83
2022/01/22 07:16:26;;;;;;;;;;;;;;;;;;5003271;28;1677;-83
2022/01/22 07:18:55;;;;;;;;;;;;;;;;;;5004163;28;1748;-83
2022/01/22 07:21:21;;;;;;;;;;;;;;;;;;5001278;28;1509;-82
2022/01/22 07:26:12;;;;;;;;;;;;;;;;;;5002403;28;1451;-83
2022/01/22 07:28:39;;;;;;;;;;;;;;;;;;5005941;28;1637;-83
2022/01/22 07:31:04;;;;;;;;;;;;;;;;;;5003209;28;1249;-83
2022/01/22 07:33:29;;;;;;;;;;;;;;;;;;5003403;28;1906;-83
2022/01/22 07:35:54;;;;;;;;;;;;;;;;;;5003408;28;1512;-82
2022/01/22 07:38:20;;;;;;;;;;;;;;;;;;5003143;28;1388;-82
2022/01/22 07:40:45;;;;;;;;;;;;;;;;;;5003315;28;1673;-83
2022/01/22 07:43:11;;;;;;;;;;;;;;;;;;5005485;28;1596;-83
2022/01/22 07:45:36;;;;;;;;;;;;;;;;;;5004003;28;1696;-82
2022/01/22 07:48:01;;;;;;;;;;;;;;;;;;5003917;28;1469;-82
2022/01/22 07:50:26;;;;;;;;;;;;;;;;;;5002206;28;1672;-82
2022/01/22 07:52:52;;;;;;;;;;;;;;;;;;5002531;28;1976;-84
2022/01/22 07:55:19;;;;;;;;;;;;;;;;;;5001897;28;1657;-84
2022/01/22 07:57:44;;;;;;;;;;;;;;;;;;5004377;28;1418;-84
2022/01/22 08:00:11;;;;;;;;;;;;;;;;;;5003942;28;1451;-83
2022/01/22 08:02:36;;;;;;;;;;;;;;;;;;5003304;28;1655;-84
2022/01/22 08:05:02;;;;;;;;;;;;;;;;;;5005580;28;1501;-83
2022/01/22 08:07:27;;;;;;;;;;;;;;;;;;5005994;28;1697;-83
2022/01/22 08:09:52;;;;;;;;;;;;;;;;;;5004019;28;1577;-80
2022/01/22 08:12:17;;;;;;;;;;;;;;;;;;5003914;28;1966;-81
2022/01/22 08:14:43;;;;;;;;;;;;;;;;;;5005450;28;1580;-81
2022/01/22 08:17:08;;;;;;;;;;;;;;;;;;5003367;28;1601;-81
2022/01/22 08:19:33;;;;;;;;;;;;;;;;;;5011328;28;1592;-81
2022/01/22 08:21:58;;;;;;;;;;;;;;;;;;5011062;28;1607;-82
2022/01/22 08:24:26;;;;;;;;;;;;;;;;;;5010070;28;1557;-81
2022/01/22 08:27:08;;;;;;;;;;;;;;;;;;5008372;28;1616;-81
2022/01/22 08:29:33;;;;;;;;;;;;;;;;;;5004121;28;1635;-81
2022/01/22 08:37:22;;;;;;;;;;;;;;;;;;5010320;28;1701;-81
2022/01/22 08:39:47;;;;;;;;;;;;;;;;;;4999630;28;1627;-82
2022/01/22 08:42:13;;;;;;;;;;;;;;;;;;5016174;28;1504;-82
2022/01/22 08:44:40;;;;;;;;;;;;;;;;;;5014455;28;1588;-83
2022/01/22 08:47:05;;;;;;;;;;;;;;;;;;5014058;28;1643;-83
2022/01/22 08:49:30;;;;;;;;;;;;;;;;;;5014886;28;1619;-82
2022/01/22 08:51:55;;;;;;;;;;;;;;;;;;5013531;28;1968;-82
2022/01/22 08:54:21;;;;;;;;;;;;;;;;;;5014693;28;1650;-82
2022/01/22 08:56:46;;;;;;;;;;;;;;;;;;5013377;28;1737;-83
2022/01/22 08:59:12;;;;;;;;;;;;;;;;;;5013953;28;1678;-83
2022/01/22 09:01:38;;;;;;;;;;;;;;;;;;5014683;28;1639;-83
2022/01/22 09:04:03;;;;;;;;;;;;;;;;;;5004974;28;1472;-83
2022/01/22 09:06:29;;;;;;;;;;;;;;;;;;5010477;28;1529;-83
2022/01/22 09:09:00;;;;;;;;;;;;;;;;;;5012654;28;1620;-83
2022/01/22 09:11:25;;;;;;;;;;;;;;;;;;5013729;28;1601;-83
2022/01/22 09:13:50;;;;;;;;;;;;;;;;;;5014629;28;1902;-83
2022/01/22 09:16:15;;;;;;;;;;;;;;;;;;5014222;28;1598;-83
2022/01/22 09:18:40;;;;;;;;;;;;;;;;;;5013605;28;1592;-81
2022/01/22 09:21:06;;;;;;;;;;;;;;;;;;5013154;28;1588;-82
2022/01/22 09:23:32;;;;;;;;;;;;;;;;;;5012469;28;1577;-81
2022/01/22 09:25:57;;;;;;;;;;;;;;;;;;5010989;28;1654;-82
2022/01/22 09:28:23;;;;;;;;;;;;;;;;;;5009674;28;1695;-82
2022/01/22 09:30:48;;;;;;;;;;;;;;;;;;5007664;28;1295;-82
2022/01/22 09:33:13;;;;;;;;;;;;;;;;;;5005877;28;1898;-82
2022/01/22 09:35:39;;;;;;;;;;;;;;;;;;5005620;28;1683;-82
2022/01/22 09:38:04;;;;;;;;;;;;;;;;;;5003228;28;1625;-82
2022/01/22 09:40:29;;;;;;;;;;;;;;;;;;5004228;28;1305;-81
2022/01/22 09:42:56;;;;;;;;;;;;;;;;;;5006680;28;1576;-82
2022/01/22 09:45:22;;;;;;;;;;;;;;;;;;5005121;28;1704;-82
2022/01/22 09:47:47;;;;;;;;;;;;;;;;;;5010603;28;1664;-81
2022/01/22 09:50:13;;;;;;;;;;;;;;;;;;5010598;28;1206;-81
2022/01/22 09:52:41;;;;;;;;;;;;;;;;;;5002526;28;1965;-81
2022/01/22 09:55:06;;;;;;;;;;;;;;;;;;5008352;28;2147;-81
2022/01/22 09:57:34;;;;;;;;;;;;;;;;;;5011118;28;1584;-81
2022/01/22 10:00:00;;;;;;;;;;;;;;;;;;5013834;28;1660;-81
2022/01/22 10:02:25;;;;;;;;;;;;;;;;;;5012614;28;1573;-81
2022/01/22 10:04:52;;;;;;;;;;;;;;;;;;5005111;28;1609;-81
2022/01/22 10:07:18;;;;;;;;;;;;;;;;;;5011095;28;1765;-81
2022/01/22 10:09:56;;;;;;;;;;;;;;;;;;5026235;28;1597;-81
2022/01/22 10:12:22;;;;;;;;;;;;;;;;;;5012676;28;1962;-81
2022/01/22 10:15:08;;;;;;;;;;;;;;;;;;5012322;28;1581;-81
2022/01/22 10:17:39;;;;;;;;;;;;;;;;;;5009194;28;1776;-81
2022/01/22 10:20:08;;;;;;;;;;;;;;;;;;5011827;28;1637;-81
2022/01/22 10:22:43;;;;;;;;;;;;;;;;;;5001673;28;1661;-81
2022/01/22 10:25:18;;;;;;;;;;;;;;;;;;5010907;28;1620;-81
2022/01/22 10:27:48;;;;;;;;;;;;;;;;;;5010798;28;1658;-81
2022/01/22 10:30:16;;;;;;;;;;;;;;;;;;5013010;28;1551;-82
2022/01/22 10:32:51;;;;;;;;;;;;;;;;;;5004300;28;1969;-82
2022/01/22 10:35:20;;;;;;;;;;;;;;;;;;5011165;28;1665;-82
2022/01/22 10:37:45;;;;;;;;;;;;;;;;;;5007810;28;1660;-82
2022/01/22 10:40:17;;;;;;;;;;;;;;;;;;5011412;28;1573;-82
2022/01/22 10:42:43;;;;;;;;;;;;;;;;;;5012085;28;1661;-83
2022/01/22 10:45:12;;;;;;;;;;;;;;;;;;5008566;28;1622;-82
2022/01/22 10:47:37;;;;;;;;;;;;;;;;;;5004339;28;1702;-82
2022/01/22 10:50:19;;;;;;;;;;;;;;;;;;5010663;28;1576;-82
2022/01/22 10:52:48;;;;;;;;;;;;;;;;;;5004752;28;1997;-82
2022/01/22 10:55:13;;;;;;;;;;;;;;;;;;5006993;28;1660;-82
2022/01/22 10:57:38;;;;;;;;;;;;;;;;;;5002939;28;1647;-81
2022/01/22 11:00:04;;;;;;;;;;;;;;;;;;5009942;28;1674;-83
2022/01/22 11:02:33;;;;;;;;;;;;;;;;;;5007423;28;1605;-82
2022/01/22 11:04:58;;;;;;;;;;;;;;;;;;5008419;28;1606;-82
2022/01/22 11:07:23;;;;;;;;;;;;;;;;;;5003690;28;1643;-82
2022/01/22 11:09:49;;;;;;;;;;;;;;;;;;5002209;28;1410;-82
2022/01/22 11:12:14;;;;;;;;;;;;;;;;;;5007551;28;1928;-82
2022/01/22 11:14:41;;;;;;;;;;;;;;;;;;4999172;28;1668;-82
2022/01/22 11:17:06;;;;;;;;;;;;;;;;;;4998319;28;1483;-82
2022/01/22 11:19:35;;;;;;;;;;;;;;;;;;5006400;28;1700;-82
2022/01/22 11:22:04;;;;;;;;;;;;;;;;;;5021152;28;1375;-82
2022/01/22 11:24:29;;;;;;;;;;;;;;;;;;5006580;28;1759;-82
2022/01/22 11:26:55;;;;;;;;;;;;;;;;;;5005347;28;1404;-81
2022/01/22 11:29:22;;;;;;;;;;;;;;;;;;4999288;28;1645;-81
2022/01/22 11:31:47;;;;;;;;;;;;;;;;;;5023154;28;1902;-82
2022/01/22 11:34:16;;;;;;;;;;;;;;;;;;5000253;28;1633;-80
2022/01/22 11:36:43;;;;;;;;;;;;;;;;;;5019799;28;1620;-82
2022/01/22 11:39:10;;;;;;;;;;;;;;;;;;5009269;28;1591;-80
2022/01/22 11:41:36;;;;;;;;;;;;;;;;;;5011363;28;1510;-80
2022/01/22 11:44:05;;;;;;;;;;;;;;;;;;5010872;28;1601;-81
2022/01/22 11:46:40;;;;;;;;;;;;;;;;;;5001111;28;1297;-81
2022/01/22 11:49:12;;;;;;;;;;;;;;;;;;5007812;28;1725;-78
2022/01/22 11:51:38;;;;;;;;;;;;;;;;;;5011948;28;1607;-80
2022/01/22 11:54:03;;;;;;;;;;;;;;;;;;5016726;28;1890;-79
2022/01/22 11:56:40;;;;;;;;;;;;;;;;;;5005324;28;1612;-78
2022/01/22 11:59:11;;;;;;;;;;;;;;;;;;4993604;28;1418;-79
2022/01/22 12:01:43;;;;;;;;;;;;;;;;;;5016099;28;1572;-80
2022/01/22 12:04:09;;;;;;;;;;;;;;;;;;5019830;28;1180;-81
2022/01/22 12:06:35;;;;;;;;;;;;;;;;;;5010173;28;1675;-80
2022/01/22 12:09:10;;;;;;;;;;;;;;;;;;5008361;28;1653;-81
2022/01/22 12:14:39;;;;;;;;;;;;;;;;;;5018680;28;1231;-81
2022/01/22 12:17:05;;;;;;;;;;;;;;;;;;5008156;28;1678;-81
2022/01/22 12:19:36;;;;;;;;;;;;;;;;;;5012940;28;1655;-81
2022/01/22 12:22:10;;;;;;;;;;;;;;;;;;5006494;28;1691;-82
2022/01/22 12:24:35;;;;;;;;;;;;;;;;;;4998025;28;1838;-83
2022/01/22 12:27:04;;;;;;;;;;;;;;;;;;5014253;28;1698;-83
2022/01/22 12:29:34;;;;;;;;;;;;;;;;;;5013933;28;1634;-82
2022/01/22 12:32:05;;;;;;;;;;;;;;;;;;5012647;28;1899;-82
2022/01/22 12:34:49;;;;;;;;;;;;;;;;;;5008405;28;1576;-81
2022/01/22 12:37:19;;;;;;;;;;;;;;;;;;5014451;28;1635;-83
2022/01/22 12:39:49;;;;;;;;;;;;;;;;;;5013859;28;1560;-82
2022/01/22 12:42:23;;;;;;;;;;;;;;;;;;5015377;28;1749;-82
2022/01/22 12:44:56;;;;;;;;;;;;;;;;;;5014792;28;1698;-83
2022/01/22 12:47:21;;;;;;;;;;;;;;;;;;5005576;28;1749;-81
2022/01/22 12:49:46;;;;;;;;;;;;;;;;;;5009181;28;1919;-83
2022/01/22 12:52:15;;;;;;;;;;;;;;;;;;4992578;28;1906;-82
2022/01/22 12:54:44;;;;;;;;;;;;;;;;;;5005500;28;1645;-83
2022/01/22 12:57:12;;;;;;;;;;;;;;;;;;5013395;28;1492;-80
2022/01/22 12:59:49;;;;;;;;;;;;;;;;;;5000638;28;1670;-80
2022/01/22 13:02:15;;;;;;;;;;;;;;;;;;5014694;28;1631;-81
2022/01/22 13:04:40;;;;;;;;;;;;;;;;;;5015278;28;1666;-81
2022/01/22 13:07:11;;;;;;;;;;;;;;;;;;5025442;28;1293;-82
2022/01/22 13:09:47;;;;;;;;;;;;;;;;;;5027282;28;1228;-81
2022/01/22 13:12:12;;;;;;;;;;;;;;;;;;5020647;28;1910;-81
2022/01/22 13:14:37;;;;;;;;;;;;;;;;;;5024586;28;1252;-82
2022/01/22 13:17:03;;;;;;;;;;;;;;;;;;5014169;28;1801;-81
2022/01/22 13:19:29;;;;;;;;;;;;;;;;;;5015570;28;1682;-81
2022/01/22 13:21:58;;;;;;;;;;;;;;;;;;5019810;28;1675;-81
2022/01/22 13:24:25;;;;;;;;;;;;;;;;;;5024780;28;1334;-81
2022/01/22 13:26:58;;;;;;;;;;;;;;;;;;5003968;28;1594;-81
2022/01/22 13:29:30;;;;;;;;;;;;;;;;;;5003032;28;1391;-81
2022/01/22 13:31:56;;;;;;;;;;;;;;;;;;5015514;28;1898;-80
2022/01/22 13:34:33;;;;;;;;;;;;;;;;;;5025007;28;1136;-81
2022/01/22 13:37:50;;;;;;;;;;;;;;;;;;5012955;28;1635;-81
2022/01/22 13:45:21;;;;;;;;;;;;;;;;;;5014054;28;1222;-81
2022/01/22 13:47:53;;;;;;;;;;;;;;;;;;5010359;28;1623;-80
2022/01/22 13:50:20;;;;;;;;;;;;;;;;;;5015364;28;933;-80
2022/01/22 13:52:46;;;;;;;;;;;;;;;;;;5015168;28;1906;-80
2022/01/22 13:55:12;;;;;;;;;;;;;;;;;;5020505;28;1827;-80
2022/01/22 13:57:38;;;;;;;;;;;;;;;;;;5032296;28;1208;-80
2022/01/22 14:00:10;;;;;;;;;;;;;;;;;;5015529;28;1620;-80
2022/01/22 14:03:02;;;;;;;;;;;;;;;;;;5014784;28;1442;-81
2022/01/22 14:05:25;;;;;;;;;;;;;;;;;;5000203;28;1663;-79
2022/01/22 14:07:57;;;;;;;;;;;;;;;;;;5015062;28;1678;-80
2022/01/22 14:10:25;;;;;;;;;;;;;;;;;;5016803;28;1632;-80
2022/01/22 14:12:56;;;;;;;;;;;;;;;;;;5009847;28;1973;-80
2022/01/22 14:15:30;;;;;;;;;;;;;;;;;;5024662;28;1382;-80
2022/01/22 14:18:06;;;;;;;;;;;;;;;;;;5013968;28;1722;-79
2022/01/22 14:20:32;;;;;;;;;;;;;;;;;;5014926;28;886;-81
2022/01/22 14:22:57;;;;;;;;;;;;;;;;;;5013087;28;1592;-81
2022/01/22 14:25:23;;;;;;;;;;;;;;;;;;5022531;28;1248;-80
2022/01/22 14:27:56;;;;;;;;;;;;;;;;;;5019304;28;1160;-77
2022/01/22 14:30:34;;;;;;;;;;;;;;;;;;5015511;28;1663;-82
2022/01/22 14:32:59;;;;;;;;;;;;;;;;;;5008086;28;1972;-82
2022/01/22 14:35:25;;;;;;;;;;;;;;;;;;5013229;28;1576;-82
2022/01/22 14:37:53;;;;;;;;;;;;;;;;;;5017787;28;1599;-82
2022/01/22 14:45:56;;;;;;;;;;;;;;;;;;5002799;28;1710;-81
2022/01/22 14:48:22;;;;;;;;;;;;;;;;;;5012484;28;1631;-80
2022/01/22 14:50:47;;;;;;;;;;;;;;;;;;5013216;28;1744;-81
2022/01/22 14:53:13;;;;;;;;;;;;;;;;;;5011147;28;1906;-80
2022/01/22 14:55:39;;;;;;;;;;;;;;;;;;5012078;28;1715;-80
2022/01/22 14:58:05;;;;;;;;;;;;;;;;;;5003289;28;1653;-79
2022/01/22 15:00:30;;;;;;;;;;;;;;;;;;4996290;28;1245;-81
2022/01/22 15:02:55;;;;;;;;;;;;;;;;;;5012553;28;1428;-82
2022/01/22 15:05:23;;;;;;;;;;;;;;;;;;5008850;28;1576;-81
2022/01/22 15:07:48;;;;;;;;;;;;;;;;;;5012724;28;1580;-81
2022/01/22 15:10:20;;;;;;;;;;;;;;;;;;4993775;28;1828;-82
2022/01/22 15:12:46;;;;;;;;;;;;;;;;;;4999387;28;1898;-81
2022/01/22 15:15:12;;;;;;;;;;;;;;;;;;5023631;28;1726;-79
2022/01/22 15:17:54;;;;;;;;;;;;;;;;;;5025564;28;1207;-82
2022/01/22 15:20:20;;;;;;;;;;;;;;;;;;5012074;28;1765;-81
2022/01/22 15:22:45;;;;;;;;;;;;;;;;;;5010734;28;1578;-82
2022/01/22 15:25:10;;;;;;;;;;;;;;;;;;5009946;28;1583;-79
2022/01/22 15:27:36;;;;;;;;;;;;;;;;;;5009189;28;1852;-79
2022/01/22 15:30:23;;;;;;;;;;;;;;;;;;5020509;28;1677;-80
2022/01/22 15:32:56;;;;;;;;;;;;;;;;;;5019897;28;1906;-79
2022/01/22 15:35:22;;;;;;;;;;;;;;;;;;5018642;28;1706;-79
2022/01/22 15:37:50;;;;;;;;;;;;;;;;;;5010598;28;1690;-79
2022/01/22 15:40:16;;;;;;;;;;;;;;;;;;5018326;28;2088;-78
2022/01/22 15:42:42;;;;;;;;;;;;;;;;;;5022228;28;1608;-80
2022/01/22 15:45:08;;;;;;;;;;;;;;;;;;5022730;28;1305;-80
2022/01/22 15:47:34;;;;;;;;;;;;;;;;;;5008835;28;1659;-78
2022/01/22 15:49:59;;;;;;;;;;;;;;;;;;4993752;28;1929;-77
2022/01/22 15:52:25;;;;;;;;;;;;;;;;;;5008439;28;1918;-78
2022/01/22 15:54:50;;;;;;;;;;;;;;;;;;5012007;28;1530;-76
2022/01/22 15:57:15;;;;;;;;;;;;;;;;;;5011980;28;1710;-78
2022/01/22 15:59:41;;;;;;;;;;;;;;;;;;5002622;28;1426;-77
2022/01/22 16:02:06;;;;;;;;;;;;;;;;;;4993430;28;1687;-79
2022/01/22 16:04:33;;;;;;;;;;;;;;;;;;4996119;28;1102;-79
2022/01/22 16:07:02;;;;;;;;;;;;;;;;;;5012232;28;1322;-80
2022/01/22 16:09:29;;;;;;;;;;;;;;;;;;5017275;28;1644;-80
2022/01/22 16:11:54;;;;;;;;;;;;;;;;;;5010313;28;1961;-81
2022/01/22 16:14:19;;;;;;;;;;;;;;;;;;4995369;28;1639;-80
2022/01/22 16:16:45;;;;;;;;;;;;;;;;;;5001934;28;1290;-80
2022/01/22 16:19:11;;;;;;;;;;;;;;;;;;5002942;28;1828;-81
2022/01/22 16:21:37;;;;;;;;;;;;;;;;;;5002708;28;1183;-80
2022/01/22 16:24:02;;;;;;;;;;;;;;;;;;5001677;28;1548;-79
2022/01/22 16:26:27;;;;;;;;;;;;;;;;;;4998503;28;1451;-80
2022/01/22 16:28:52;;;;;;;;;;;;;;;;;;5011355;28;1733;-78
2022/01/22 16:31:18;;;;;;;;;;;;;;;;;;5012932;28;993;-79
2022/01/22 16:33:44;;;;;;;;;;;;;;;;;;5015905;28;1894;-78
2022/01/22 16:36:09;;;;;;;;;;;;;;;;;;5016200;28;1628;-79
2022/01/22 16:38:34;;;;;;;;;;;;;;;;;;5004444;28;1567;-80
2022/01/22 16:41:00;;;;;;;;;;;;;;;;;;5002870;28;1335;-80
2022/01/22 16:43:30;;;;;;;;;;;;;;;;;;5001436;28;1599;-80
2022/01/22 16:51:20;;;;;;;;;;;;;;;;;;5012726;28;712;-79
2022/01/22 16:56:37;;;;;;;;;;;;;;;;;;5011737;28;1543;-80
2022/01/22 16:59:04;;;;;;;;;;;;;;;;;;5006681;28;1627;-79
2022/01/22 17:01:48;;;;;;;;;;;;;;;;;;5014564;28;1348;-79
2022/01/22 17:04:19;;;;;;;;;;;;;;;;;;5014933;28;1615;-80
2022/01/22 17:06:45;;;;;;;;;;;;;;;;;;5014028;28;1387;-80
2022/01/22 17:10:04;;;;;;;;;;;;;;;;;;5013245;28;1846;-79
2022/01/22 17:14:40;;;;;;;;;;;;;;;;;;5010383;28;1660;-80
2022/01/22 17:17:06;;;;;;;;;;;;;;;;;;4985393;28;1447;-80
2022/01/22 17:19:31;;;;;;;;;;;;;;;;;;4979587;28;1596;-80
2022/01/22 17:21:57;;;;;;;;;;;;;;;;;;4994334;28;1545;-80
2022/01/22 17:24:22;;;;;;;;;;;;;;;;;;4995168;28;843;-79
2022/01/22 17:26:47;;;;;;;;;;;;;;;;;;5010302;28;1600;-79
2022/01/22 17:29:13;;;;;;;;;;;;;;;;;;5014724;28;827;-78
2022/01/22 17:31:39;;;;;;;;;;;;;;;;;;5011616;28;1593;-77
2022/01/22 17:34:04;;;;;;;;;;;;;;;;;;5003504;28;1983;-76
2022/01/22 17:36:29;;;;;;;;;;;;;;;;;;5004801;28;1667;-77
2022/01/22 17:38:54;;;;;;;;;;;;;;;;;;4995453;28;1124;-78
2022/01/22 17:41:20;;;;;;;;;;;;;;;;;;5005807;28;1589;-78
2022/01/22 17:43:46;;;;;;;;;;;;;;;;;;5010861;28;1673;-76
2022/01/22 17:46:11;;;;;;;;;;;;;;;;;;5011049;28;1839;-76
2022/01/22 17:48:36;;;;;;;;;;;;;;;;;;5015350;28;1519;-77
2022/01/22 17:51:02;;;;;;;;;;;;;;;;;;5012605;28;1641;-77
2022/01/22 17:53:30;;;;;;;;;;;;;;;;;;5013769;28;1902;-78
2022/01/22 17:55:57;;;;;;;;;;;;;;;;;;4994518;28;1625;-78
2022/01/22 17:58:22;;;;;;;;;;;;;;;;;;5015630;28;873;-77
2022/01/22 18:00:48;;;;;;;;;;;;;;;;;;4999966;28;1604;-76
2022/01/22 18:03:13;;;;;;;;;;;;;;;;;;5027576;28;1719;-76
2022/01/22 18:05:39;;;;;;;;;;;;;;;;;;5008347;28;1639;-78
2022/01/22 18:08:04;;;;;;;;;;;;;;;;;;5003823;28;1718;-77
2022/01/22 18:10:32;;;;;;;;;;;;;;;;;;5007179;28;1690;-77
2022/01/22 18:12:57;;;;;;;;;;;;;;;;;;5020848;28;1955;-77
2022/01/22 18:15:22;;;;;;;;;;;;;;;;;;5018970;28;1394;-76
2022/01/22 18:17:48;;;;;;;;;;;;;;;;;;5000492;28;1685;-76
2022/01/22 18:20:13;;;;;;;;;;;;;;;;;;5008481;28;1456;-76
2022/01/22 18:22:38;;;;;;;;;;;;;;;;;;5005733;28;1308;-75
2022/01/22 18:25:04;;;;;;;;;;;;;;;;;;5011416;28;1596;-77
2022/01/22 18:27:29;;;;;;;;;;;;;;;;;;5021879;28;1586;-76
2022/01/22 18:29:54;;;;;;;;;;;;;;;;;;5015356;28;1647;-77
2022/01/22 18:32:22;;;;;;;;;;;;;;;;;;4996748;28;2298;-76
2022/01/22 18:34:48;;;;;;;;;;;;;;;;;;5012928;28;1761;-78
2022/01/22 18:37:13;;;;;;;;;;;;;;;;;;5022504;28;1187;-78
2022/01/22 18:39:38;;;;;;;;;;;;;;;;;;5014811;28;993;-77
2022/01/22 18:42:04;;;;;;;;;;;;;;;;;;5022665;28;1718;-76
2022/01/22 18:44:30;;;;;;;;;;;;;;;;;;5017145;28;1487;-77
2022/01/22 18:46:55;;;;;;;;;;;;;;;;;;5007250;28;1623;-78
2022/01/22 18:49:21;;;;;;;;;;;;;;;;;;5014889;28;811;-78
2022/01/22 18:51:51;;;;;;;;;;;;;;;;;;5014497;28;1642;-78
2022/01/22 18:54:16;;;;;;;;;;;;;;;;;;5014754;28;1967;-79
2022/01/22 18:56:42;;;;;;;;;;;;;;;;;;5010054;28;1699;-78
2022/01/22 18:59:11;;;;;;;;;;;;;;;;;;5004305;28;1152;-78
2022/01/22 19:01:40;;;;;;;;;;;;;;;;;;5009920;28;1898;-77
2022/01/22 19:04:07;;;;;;;;;;;;;;;;;;4995967;28;1271;-77
2022/01/22 19:06:32;;;;;;;;;;;;;;;;;;4999609;28;1565;-78
2022/01/22 19:08:57;;;;;;;;;;;;;;;;;;4976801;28;1680;-78
2022/01/22 19:11:22;;;;;;;;;;;;;;;;;;4995428;28;1583;-78
2022/01/22 19:13:48;;;;;;;;;;;;;;;;;;5002769;28;1977;-78